Terminal Aerodrome Forecast
Issued by NWS

Home | Current Version | Previous Version | Text Only | Print | Product List | Glossary Off
Versions: 1 2 3 4 5 6 7 8 9 10 11 12 13 14 15 16 17

000
FTUS45 KGGW 181120
TAFGDV
TAF
KGDV 181120Z 1812/1912 33013KT P6SM SCT170
     FM181700 28014KT P6SM FEW140
     FM190200 19005KT P6SM SCT140=

USA.gov is the U.S. government's official web portal to all federal, state and local government web resources and services.